MMMMMMCB

Guest
Details From MMMM - GENERAL FRANCISCO J MUJICA INTL
To MMCB - GENERAL MARIANO MATAMOROS
Flight Number -
Tags generated
Created
Modified
Stats Distance 117 nm / 217 km
Max Altitude 5,300 ft / 1,615 m
Waypoints 3
Social Downloads 4
Likes 0
Share VATSIM

Download

Looking for another format? Having issues loading an existing format? Contact us
Advertisement - Login to hide

Notes

Basic altitude profile: - Ascent Rate: 2500ft/min - Ascent Speed: 250kts - Cruise Altitude: 35000ft - Cruise Speed: 420kts - Descent Rate: 1500ft/min - Descent Speed: 250kts Options: - Use NATs: no - Use PACOTS: no - Use low airways: yes - Use high airways: no

Route

MMMM DERVI MMCB

ID Type Via Altitude (ft/m) Position (lat/lon) Dist (leg/tot) Name
O MMMM APT - 0 / 0 19.85049 / -101.02526 - / 0 nm GENERAL FRANCISCO J MUJICA INTL
DERVI FIX - 5,300 / 1,615 19.08816 / -99.60619 92 / 92 nm
O MMCB APT - 0 / 0 18.83476 / -99.26130 24 / 117 nm GENERAL MARIANO MATAMOROS

Altitude Profile

Advertisement - Login to hide

MMMM

Details ICAO MMMM (MLM)
Name General Francisco J Mujica intl
Region Mexico
Timezone America/Mexico_City (UTC-5.0)
Stats Elevation 6,033 ft / 1,839 m (AMSL)
Location 19.849900° -101.025000°
Runways 1
Magnetic Variation 5.231° E

METAR

Not found

TAF

TAF MMMM 251707Z 2518/2624 18005KT 6SM HZ SCT025 BKN230 FM252100 18012KT 6SM HZ SCT025CB SCT090 BKN230 TEMPO 2522/2602 6SM TSRA BKN025CB FM260300 00000KT P6SM SCT025 BKN090 BECMG 2605/2606 SCT090 FM261000 00000KT 6SM HZ SCT015 SCT090 FM261800 18005KT 6SM HZ SCT025 SCT230 FM262100 18012KT 6SM HZ BKN025CB BKN090 PROB40 2621/2624 5SM TSRA

Decode

Departure Runways

ID Width Length Bearing (true/mag) Surface Threshold Overrun Markings Lighting
05 148 ft / 45 m 11,186 ft / 3,410 m 54.47° / 49.24° ASPHALT 0 ft / 0 m 190 ft / 58 m PREC-APP EDGE THRESHOLD ODALS
23 148 ft / 45 m 11,186 ft / 3,410 m 234.48° / 229.25° ASPHALT 0 ft / 0 m 177 ft / 54 m PREC-APP EDGE THRESHOLD SSALF

MMCB

Details ICAO MMCB (CVJ)
Name General Mariano Matamoros
Region Mexico
Timezone America/Mexico_City (UTC-5.0)
Stats Elevation 4,276 ft / 1,303 m (AMSL)
Location 18.834800° -99.261400°
Runways 1
Magnetic Variation 4.553° E

METAR

MMCB 252055Z 00000KT 10SM FEW015 SCT070 BKN250 29/16 A3004 RMK 8/134 HZY

Decode

TAF

TAF MMCB 251648Z 2518/2618 19008KT P6SM SCT020 BKN080 BKN220 BECMG 2521/2522 P6SM VC RA BKN020CB TEMPO 2523/2603 4SM TSRA BKN015 OVC020CB FM260400 00000KT P6SM SCT020 BKN080 BKN200 FM261000 00000KT P6SM SCT020 BKN220 TEMPO 2611/2615 3SM BR HZ FM261600 18006KT P6SM SCT020 BKN220

Decode

Destination Runways

ID Width Length Bearing (true/mag) Surface Threshold Overrun Markings Lighting
02 148 ft / 45 m 9,481 ft / 2,890 m 31.52° / 26.97° ASPHALT 1,322 ft / 403 m 200 ft / 61 m PREC-APP EDGE THRESHOLD ODALS
20 148 ft / 45 m 9,481 ft / 2,890 m 211.53° / 206.97° ASPHALT 269 ft / 82 m 0 ft / 0 m PREC-APP EDGE THRESHOLD ODALS

Popular Alternatives